Time;durP1;ratioP1;P1;durP2;ratioP2;P2;SDS_P1;SDS_P2;PMS_P1;PMS_P2;Temp;Humidity;BMP_temperature;BMP_pressure;BME280_temperature;BME280_humidity;BME280_pressure;Samples;Min_cycle;Max_cycle;Signal;HPM_P1;HPM_P2
2022/07/04 00:02:07;;;;;;;1.45;1.10;;;;;;;;;;1861519;75;26270;-47
2022/07/04 00:04:34;;;;;;;1.00;1.00;;;;;;;;;;1869744;75;26288;-47
2022/07/04 00:07:01;;;;;;;1.05;1.00;;;;;;;;;;1862181;75;26255;-48
2022/07/04 00:09:28;;;;;;;0.88;0.88;;;;;;;;;;1859940;75;26352;-51
2022/07/04 00:11:56;;;;;;;1.30;1.20;;;;;;;;;;1863066;75;26300;-43
2022/07/04 00:14:23;;;;;;;1.42;1.40;;;;;;;;;;1858904;75;26273;-45
2022/07/04 00:16:50;;;;;;;1.10;1.07;;;;;;;;;;1883033;75;26692;-47
2022/07/04 00:19:17;;;;;;;1.20;1.15;;;;;;;;;;1886376;75;26758;-44
2022/07/04 00:21:45;;;;;;;1.50;1.10;;;;;;;;;;1893062;75;26369;-44
2022/07/04 00:24:13;;;;;;;1.20;1.07;;;;;;;;;;1887071;75;26732;-53
2022/07/04 00:26:40;;;;;;;1.02;1.02;;;;;;;;;;1876402;75;26695;-41
2022/07/04 00:29:07;;;;;;;2.05;1.10;;;;;;;;;;1877951;75;26297;-48
2022/07/04 00:31:35;;;;;;;1.42;1.00;;;;;;;;;;1883770;75;26262;-42
2022/07/04 00:34:03;;;;;;;2.72;1.02;;;;;;;;;;1881404;75;26281;-42
2022/07/04 00:36:30;;;;;;;1.40;1.30;;;;;;;;;;1898788;75;26297;-42
2022/07/04 00:38:57;;;;;;;3.40;1.22;;;;;;;;;;1868817;75;26843;-42
2022/07/04 00:41:25;;;;;;;4.22;1.27;;;;;;;;;;1881243;75;26235;-44
2022/07/04 00:44:05;;;;;;;2.12;1.10;;;;;;;;;;1905702;75;26150;-53
2022/07/04 00:46:33;;;;;;;3.80;1.20;;;;;;;;;;1886560;75;26129;-44
2022/07/04 00:49:00;;;;;;;2.58;1.12;;;;;;;;;;1884289;75;26819;-42
2022/07/04 00:51:28;;;;;;;2.05;1.10;;;;;;;;;;1869866;75;26343;-42
2022/07/04 00:53:56;;;;;;;1.37;1.10;;;;;;;;;;1882927;75;26517;-43
2022/07/04 00:56:24;;;;;;;1.30;1.20;;;;;;;;;;1883902;75;26243;-52
2022/07/04 00:58:52;;;;;;;1.85;1.15;;;;;;;;;;1865271;75;26840;-44
2022/07/04 01:01:20;;;;;;;2.75;1.15;;;;;;;;;;1850668;75;26826;-50
2022/07/04 01:03:49;;;;;;;1.27;1.17;;;;;;;;;;1867534;75;26210;-44
2022/07/04 01:06:16;;;;;;;1.67;1.10;;;;;;;;;;1884594;75;26307;-42
2022/07/04 01:08:43;;;;;;;1.52;1.20;;;;;;;;;;1863217;75;26252;-46
2022/07/04 01:11:11;;;;;;;1.12;1.10;;;;;;;;;;1873128;75;27393;-44
2022/07/04 01:13:41;;;;;;;1.42;1.10;;;;;;;;;;1858997;75;26260;-42
2022/07/04 01:16:09;;;;;;;1.22;0.95;;;;;;;;;;1877007;75;26361;-44
2022/07/04 01:18:36;;;;;;;1.00;1.00;;;;;;;;;;1883131;75;26307;-44
2022/07/04 01:21:04;;;;;;;1.02;1.02;;;;;;;;;;1876566;75;26328;-43
2022/07/04 01:23:32;;;;;;;1.10;1.10;;;;;;;;;;1871536;75;26576;-43
2022/07/04 01:25:59;;;;;;;1.35;1.00;;;;;;;;;;1871343;75;26226;-44
2022/07/04 01:28:26;;;;;;;1.20;1.10;;;;;;;;;;1869062;75;26708;-42
2022/07/04 01:30:54;;;;;;;1.02;1.02;;;;;;;;;;1865811;75;26858;-47
2022/07/04 01:33:21;;;;;;;1.37;1.10;;;;;;;;;;1878016;75;26703;-44
2022/07/04 01:35:48;;;;;;;0.90;0.90;;;;;;;;;;1866969;75;26253;-45
2022/07/04 01:38:16;;;;;;;2.15;1.00;;;;;;;;;;1889847;75;26271;-47
2022/07/04 01:40:43;;;;;;;1.57;0.98;;;;;;;;;;1871812;75;26237;-45
2022/07/04 01:43:10;;;;;;;1.02;0.90;;;;;;;;;;1872622;75;26269;-42
2022/07/04 01:45:38;;;;;;;0.90;0.90;;;;;;;;;;1848936;75;26242;-47
2022/07/04 01:48:06;;;;;;;0.82;0.82;;;;;;;;;;1873595;75;26254;-43
2022/07/04 01:50:34;;;;;;;0.90;0.90;;;;;;;;;;1894864;75;26808;-48
2022/07/04 01:53:02;;;;;;;1.67;1.00;;;;;;;;;;1868990;75;26257;-45
2022/07/04 01:55:30;;;;;;;1.22;1.10;;;;;;;;;;1895929;75;26782;-45
2022/07/04 01:57:57;;;;;;;0.93;0.93;;;;;;;;;;1867894;75;26198;-44
2022/07/04 02:03:10;;;;;;;0.85;0.85;;;;;;;;;;1870769;75;26293;-45
2022/07/04 02:05:38;;;;;;;0.80;0.80;;;;;;;;;;1878872;75;26246;-45
2022/07/04 02:08:05;;;;;;;0.93;0.93;;;;;;;;;;1879119;75;26202;-42
2022/07/04 02:10:33;;;;;;;0.93;0.93;;;;;;;;;;1883087;75;26677;-46
2022/07/04 02:13:03;;;;;;;1.00;1.00;;;;;;;;;;1880663;75;26257;-46
2022/07/04 02:15:35;;;;;;;0.95;0.95;;;;;;;;;;1861338;75;26225;-45
2022/07/04 02:18:04;;;;;;;0.95;0.93;;;;;;;;;;1882321;75;26297;-47
2022/07/04 02:20:31;;;;;;;2.22;1.10;;;;;;;;;;1866217;75;26273;-45
2022/07/04 02:22:59;;;;;;;3.65;1.00;;;;;;;;;;1879806;75;26306;-43
2022/07/04 02:25:27;;;;;;;3.10;1.27;;;;;;;;;;1871307;75;26270;-44
2022/07/04 02:27:54;;;;;;;2.37;1.10;;;;;;;;;;1873131;75;26355;-47
2022/07/04 02:30:22;;;;;;;1.75;1.02;;;;;;;;;;1867991;75;26896;-48
2022/07/04 02:32:49;;;;;;;3.83;1.00;;;;;;;;;;1860343;75;26265;-44
2022/07/04 02:35:16;;;;;;;0.98;0.95;;;;;;;;;;1873843;75;26276;-42
2022/07/04 02:37:44;;;;;;;1.55;1.12;;;;;;;;;;1874766;75;26258;-43
2022/07/04 02:40:11;;;;;;;1.60;1.00;;;;;;;;;;1869386;75;26281;-42
2022/07/04 02:42:39;;;;;;;0.90;0.90;;;;;;;;;;1860982;75;26264;-47
2022/07/04 02:45:07;;;;;;;1.90;0.85;;;;;;;;;;1883424;75;26286;-42
2022/07/04 02:47:34;;;;;;;1.00;1.00;;;;;;;;;;1869943;75;26803;-46
2022/07/04 02:50:03;;;;;;;1.07;0.90;;;;;;;;;;1874418;75;26699;-44
2022/07/04 02:52:30;;;;;;;1.02;0.85;;;;;;;;;;1878593;75;26233;-49
2022/07/04 02:54:58;;;;;;;0.80;0.80;;;;;;;;;;1875180;75;26222;-49
2022/07/04 02:57:25;;;;;;;1.07;0.80;;;;;;;;;;1869503;75;26728;-45
2022/07/04 02:59:52;;;;;;;0.93;0.93;;;;;;;;;;1875835;75;26304;-43
2022/07/04 03:02:20;;;;;;;1.00;0.80;;;;;;;;;;1869319;75;26359;-44
2022/07/04 03:04:47;;;;;;;2.95;0.80;;;;;;;;;;1873052;75;26630;-50
2022/07/04 03:07:14;;;;;;;0.90;0.90;;;;;;;;;;1862536;75;26277;-44
2022/07/04 03:09:41;;;;;;;0.85;0.85;;;;;;;;;;1877573;75;26212;-45
2022/07/04 03:12:09;;;;;;;0.70;0.70;;;;;;;;;;1873612;75;26268;-43
2022/07/04 03:14:36;;;;;;;0.78;0.78;;;;;;;;;;1871003;75;26965;-48
2022/07/04 03:17:04;;;;;;;0.90;0.90;;;;;;;;;;1873891;75;26304;-43
2022/07/04 03:19:31;;;;;;;1.90;0.90;;;;;;;;;;1868887;75;26347;-48
2022/07/04 03:21:58;;;;;;;0.80;0.80;;;;;;;;;;1876603;75;26241;-41
2022/07/04 03:24:26;;;;;;;0.80;0.80;;;;;;;;;;1875479;75;26331;-42
2022/07/04 03:26:53;;;;;;;0.75;0.75;;;;;;;;;;1869320;75;26281;-44
2022/07/04 03:29:20;;;;;;;0.80;0.80;;;;;;;;;;1871304;75;26257;-47
2022/07/04 03:31:47;;;;;;;0.80;0.80;;;;;;;;;;1875110;75;26213;-41
2022/07/04 03:34:15;;;;;;;1.10;1.10;;;;;;;;;;1869550;75;26339;-46
2022/07/04 03:36:42;;;;;;;0.80;0.80;;;;;;;;;;1876975;75;26266;-50
2022/07/04 03:39:09;;;;;;;0.98;0.98;;;;;;;;;;1876201;75;26250;-44
2022/07/04 03:41:37;;;;;;;0.75;0.75;;;;;;;;;;1878970;75;26274;-46
2022/07/04 03:44:04;;;;;;;0.80;0.80;;;;;;;;;;1883685;75;26716;-42
2022/07/04 03:46:31;;;;;;;1.45;0.90;;;;;;;;;;1859206;75;26249;-42
2022/07/04 03:48:59;;;;;;;0.80;0.80;;;;;;;;;;1879399;75;26356;-42
2022/07/04 03:51:26;;;;;;;0.82;0.80;;;;;;;;;;1875086;75;26238;-46
2022/07/04 03:53:54;;;;;;;1.35;0.93;;;;;;;;;;1894839;75;26287;-42
2022/07/04 03:56:21;;;;;;;1.62;0.95;;;;;;;;;;1881767;75;26249;-46
2022/07/04 03:58:49;;;;;;;0.95;0.95;;;;;;;;;;1873410;75;26311;-44
2022/07/04 04:01:17;;;;;;;0.90;0.90;;;;;;;;;;1903367;75;26263;-47
2022/07/04 04:06:30;;;;;;;1.17;0.93;;;;;;;;;;1864310;75;26361;-43
2022/07/04 04:08:57;;;;;;;1.37;0.90;;;;;;;;;;1898810;75;26201;-46
2022/07/04 04:11:25;;;;;;;1.10;0.98;;;;;;;;;;1902565;75;26191;-52
2022/07/04 04:13:52;;;;;;;1.25;0.90;;;;;;;;;;1869524;75;26257;-42
2022/07/04 04:16:19;;;;;;;2.92;1.07;;;;;;;;;;1884635;75;26712;-48
2022/07/04 04:18:47;;;;;;;0.90;0.90;;;;;;;;;;1894568;75;26840;-42
2022/07/04 04:21:14;;;;;;;1.00;1.00;;;;;;;;;;1901725;75;26228;-50
2022/07/04 04:23:41;;;;;;;3.12;0.90;;;;;;;;;;1895720;75;26274;-43
2022/07/04 04:26:08;;;;;;;2.05;1.00;;;;;;;;;;1868119;75;26249;-43
2022/07/04 04:28:36;;;;;;;2.95;1.25;;;;;;;;;;1872242;75;26375;-42
2022/07/04 04:31:03;;;;;;;4.45;1.00;;;;;;;;;;1876926;75;26253;-45
2022/07/04 04:33:30;;;;;;;2.20;1.12;;;;;;;;;;1882188;75;26272;-50
2022/07/04 04:35:57;;;;;;;4.17;1.00;;;;;;;;;;1893711;75;26541;-48
2022/07/04 04:38:25;;;;;;;2.87;0.90;;;;;;;;;;1872420;75;26289;-45
2022/07/04 04:40:52;;;;;;;2.25;1.10;;;;;;;;;;1879210;75;26316;-45
2022/07/04 04:43:19;;;;;;;2.22;0.80;;;;;;;;;;1891936;75;26344;-44
2022/07/04 04:45:46;;;;;;;2.75;1.00;;;;;;;;;;1867862;75;26784;-44
2022/07/04 04:48:14;;;;;;;4.75;1.10;;;;;;;;;;1886049;75;26790;-48
2022/07/04 04:50:42;;;;;;;3.55;1.00;;;;;;;;;;1872235;75;26265;-47
2022/07/04 04:53:09;;;;;;;3.30;1.17;;;;;;;;;;1861374;75;26351;-42
2022/07/04 04:55:36;;;;;;;1.17;0.82;;;;;;;;;;1882142;75;26301;-42
2022/07/04 04:58:04;;;;;;;2.87;1.10;;;;;;;;;;1872173;75;26599;-47
2022/07/04 05:00:31;;;;;;;2.37;0.98;;;;;;;;;;1883397;75;26208;-45
2022/07/04 05:02:59;;;;;;;1.65;0.95;;;;;;;;;;1884632;75;26304;-43
2022/07/04 05:05:26;;;;;;;2.27;0.85;;;;;;;;;;1896075;75;26269;-44
2022/07/04 05:07:53;;;;;;;3.95;1.07;;;;;;;;;;1893318;75;26267;-49
2022/07/04 05:10:21;;;;;;;0.72;0.65;;;;;;;;;;1892887;75;26436;-44
2022/07/04 05:12:48;;;;;;;2.15;1.20;;;;;;;;;;1873329;75;26770;-42
2022/07/04 05:15:16;;;;;;;1.22;1.00;;;;;;;;;;1868634;75;26742;-47
2022/07/04 05:17:43;;;;;;;3.75;1.05;;;;;;;;;;1889125;75;26780;-42
2022/07/04 05:20:11;;;;;;;2.87;0.95;;;;;;;;;;1883010;75;26309;-48
2022/07/04 05:22:38;;;;;;;2.08;0.85;;;;;;;;;;1860185;75;26351;-42
2022/07/04 05:25:06;;;;;;;3.25;1.30;;;;;;;;;;1875045;75;26937;-46
2022/07/04 05:27:33;;;;;;;1.52;1.00;;;;;;;;;;1875041;75;26202;-45
2022/07/04 05:30:01;;;;;;;1.20;0.98;;;;;;;;;;1878719;75;26709;-53
2022/07/04 05:32:28;;;;;;;2.98;1.07;;;;;;;;;;1871790;75;26261;-49
2022/07/04 05:34:56;;;;;;;10.60;1.05;;;;;;;;;;1894160;75;26232;-52
2022/07/04 05:37:23;;;;;;;5.60;1.32;;;;;;;;;;1891211;75;26748;-47
2022/07/04 05:39:50;;;;;;;1.55;1.27;;;;;;;;;;1889291;75;26774;-40
2022/07/04 05:42:18;;;;;;;1.15;1.10;;;;;;;;;;1867715;75;26272;-41
2022/07/04 05:44:45;;;;;;;2.67;1.10;;;;;;;;;;1891765;75;26250;-40
2022/07/04 05:47:13;;;;;;;2.42;1.27;;;;;;;;;;1872052;75;26277;-40
2022/07/04 05:49:40;;;;;;;1.30;1.17;;;;;;;;;;1872164;75;26306;-43
2022/07/04 05:52:07;;;;;;;3.40;1.20;;;;;;;;;;1862446;75;26266;-43
2022/07/04 05:54:34;;;;;;;4.35;1.20;;;;;;;;;;1877621;75;26268;-41
2022/07/04 05:57:02;;;;;;;1.77;1.20;;;;;;;;;;1863817;75;26715;-42
2022/07/04 05:59:29;;;;;;;1.12;1.10;;;;;;;;;;1867516;75;26329;-44
2022/07/04 06:01:56;;;;;;;1.52;1.17;;;;;;;;;;1868697;75;26258;-41
2022/07/04 06:04:24;;;;;;;1.30;1.20;;;;;;;;;;1878129;75;26925;-44
2022/07/04 06:06:52;;;;;;;2.08;1.30;;;;;;;;;;1869459;75;26876;-47
2022/07/04 06:09:19;;;;;;;1.40;1.30;;;;;;;;;;1899152;75;26201;-44
2022/07/04 06:11:46;;;;;;;1.22;1.10;;;;;;;;;;1894557;75;26278;-48
2022/07/04 06:14:14;;;;;;;1.50;1.17;;;;;;;;;;1886362;75;26273;-46
2022/07/04 06:16:41;;;;;;;1.60;1.20;;;;;;;;;;1871858;75;26315;-44
2022/07/04 06:19:08;;;;;;;1.90;1.20;;;;;;;;;;1865911;75;26253;-41
2022/07/04 06:21:35;;;;;;;2.77;1.12;;;;;;;;;;1868502;75;26285;-45
2022/07/04 06:24:03;;;;;;;1.32;1.22;;;;;;;;;;1873104;75;26284;-43
2022/07/04 06:26:30;;;;;;;2.67;1.30;;;;;;;;;;1869876;75;26240;-41
2022/07/04 06:28:58;;;;;;;1.50;1.40;;;;;;;;;;1882866;75;26320;-47
2022/07/04 06:31:25;;;;;;;1.40;1.30;;;;;;;;;;1899847;75;26479;-48
2022/07/04 06:36:38;;;;;;;2.30;1.25;;;;;;;;;;1887004;75;26716;-42
2022/07/04 06:39:05;;;;;;;2.75;1.45;;;;;;;;;;1886139;75;26689;-42
2022/07/04 06:41:32;;;;;;;1.30;1.20;;;;;;;;;;1889024;75;26757;-42
2022/07/04 06:44:00;;;;;;;1.17;1.10;;;;;;;;;;1884464;75;26299;-48
2022/07/04 06:46:27;;;;;;;1.20;1.20;;;;;;;;;;1859134;75;26370;-45
2022/07/04 06:48:54;;;;;;;1.52;1.37;;;;;;;;;;1869932;75;26358;-42
2022/07/04 06:51:22;;;;;;;3.47;1.40;;;;;;;;;;1869768;75;26305;-54
2022/07/04 06:53:50;;;;;;;1.37;1.15;;;;;;;;;;1867730;75;26332;-43
2022/07/04 06:56:18;;;;;;;1.50;1.40;;;;;;;;;;1869498;75;26769;-43
2022/07/04 06:58:45;;;;;;;1.80;1.40;;;;;;;;;;1860003;75;26388;-41
2022/07/04 07:01:15;;;;;;;1.50;1.40;;;;;;;;;;1869660;75;27294;-49
2022/07/04 07:03:42;;;;;;;1.52;1.42;;;;;;;;;;1884136;75;26688;-42
2022/07/04 07:06:09;;;;;;;1.50;1.40;;;;;;;;;;1863560;75;26644;-47
2022/07/04 07:08:37;;;;;;;2.67;1.62;;;;;;;;;;1865291;75;26277;-40
2022/07/04 07:11:13;;;;;;;2.20;1.50;;;;;;;;;;1848924;75;26569;-43
2022/07/04 07:13:44;;;;;;;1.60;1.50;;;;;;;;;;1873889;75;26270;-46
2022/07/04 07:16:12;;;;;;;1.60;1.50;;;;;;;;;;1879183;75;26196;-44
2022/07/04 07:18:39;;;;;;;1.55;1.55;;;;;;;;;;1879671;75;26253;-41
2022/07/04 07:21:07;;;;;;;1.57;1.57;;;;;;;;;;1876941;75;26308;-50
2022/07/04 07:23:34;;;;;;;2.08;1.40;;;;;;;;;;1878076;75;26346;-50
2022/07/04 07:26:01;;;;;;;1.47;1.40;;;;;;;;;;1863252;75;26940;-44
2022/07/04 07:28:29;;;;;;;3.35;1.67;;;;;;;;;;1865500;75;26699;-48
2022/07/04 07:30:56;;;;;;;1.60;1.50;;;;;;;;;;1875673;75;26802;-44
2022/07/04 07:33:23;;;;;;;1.37;1.32;;;;;;;;;;1882155;75;26270;-41
2022/07/04 07:35:51;;;;;;;1.52;1.40;;;;;;;;;;1891560;75;26197;-42
2022/07/04 07:38:18;;;;;;;1.60;1.50;;;;;;;;;;1882279;75;26293;-47
2022/07/04 07:40:45;;;;;;;1.60;1.50;;;;;;;;;;1867447;75;26701;-45
2022/07/04 07:43:13;;;;;;;2.20;1.20;;;;;;;;;;1882239;75;26308;-43
2022/07/04 07:45:40;;;;;;;1.40;1.30;;;;;;;;;;1881359;75;26274;-46
2022/07/04 07:48:07;;;;;;;2.45;1.27;;;;;;;;;;1872600;75;26281;-41
2022/07/04 07:50:34;;;;;;;1.85;1.30;;;;;;;;;;1877524;75;26291;-43
2022/07/04 07:53:02;;;;;;;1.40;1.22;;;;;;;;;;1872425;75;26206;-45
2022/07/04 07:55:29;;;;;;;1.42;1.32;;;;;;;;;;1871557;75;26516;-44
2022/07/04 07:57:58;;;;;;;1.10;1.10;;;;;;;;;;1870877;75;26269;-47
2022/07/04 08:00:25;;;;;;;1.82;1.25;;;;;;;;;;1850226;75;26318;-44
2022/07/04 08:05:39;;;;;;;1.87;1.10;;;;;;;;;;1826720;77;26328;-48
2022/07/04 08:08:07;;;;;;;1.22;1.15;;;;;;;;;;1826523;77;26855;-42
2022/07/04 08:10:34;;;;;;;2.12;1.10;;;;;;;;;;1819358;77;26363;-40
2022/07/04 08:13:01;;;;;;;0.98;0.98;;;;;;;;;;1833492;77;26284;-49
2022/07/04 08:15:29;;;;;;;1.10;1.10;;;;;;;;;;1821404;77;26665;-42
2022/07/04 08:17:56;;;;;;;1.00;1.00;;;;;;;;;;1833335;77;26245;-46
2022/07/04 08:20:23;;;;;;;4.03;1.22;;;;;;;;;;1837735;77;26770;-46
2022/07/04 08:22:51;;;;;;;1.42;0.90;;;;;;;;;;1837319;77;26270;-41
2022/07/04 08:25:18;;;;;;;0.95;0.95;;;;;;;;;;1825478;77;26258;-47
2022/07/04 08:27:45;;;;;;;1.27;1.17;;;;;;;;;;1846232;77;27214;-41
2022/07/04 08:30:13;;;;;;;0.98;0.90;;;;;;;;;;1840298;77;26764;-43
2022/07/04 08:32:40;;;;;;;0.90;0.90;;;;;;;;;;1833729;77;26337;-46
2022/07/04 08:35:08;;;;;;;1.02;1.00;;;;;;;;;;1840902;77;26328;-41
2022/07/04 08:37:35;;;;;;;2.12;1.10;;;;;;;;;;1835878;77;26263;-43
2022/07/04 08:40:06;;;;;;;1.15;1.07;;;;;;;;;;1839503;77;26279;-46
2022/07/04 08:42:34;;;;;;;1.12;1.00;;;;;;;;;;1843990;77;26391;-41
2022/07/04 08:45:02;;;;;;;1.37;0.90;;;;;;;;;;1824779;77;26297;-45
2022/07/04 08:47:31;;;;;;;1.00;1.00;;;;;;;;;;1829814;77;26242;-42
2022/07/04 08:50:11;;;;;;;1.67;1.10;;;;;;;;;;1837327;77;26367;-45
2022/07/04 08:52:40;;;;;;;3.10;0.93;;;;;;;;;;1840508;77;26892;-45
2022/07/04 09:00:39;;;;;;;0.82;0.82;;;;;;;;;;1855211;75;26343;-43
2022/07/04 09:03:07;;;;;;;2.25;1.12;;;;;;;;;;1871183;75;26323;-42
2022/07/04 09:05:34;;;;;;;1.00;1.00;;;;;;;;;;1871260;75;26281;-57
2022/07/04 09:08:02;;;;;;;1.60;1.05;;;;;;;;;;1868642;75;26332;-41
2022/07/04 09:10:30;;;;;;;1.02;0.90;;;;;;;;;;1877466;75;26806;-48
2022/07/04 09:12:57;;;;;;;1.27;1.10;;;;;;;;;;1878737;75;26193;-42
2022/07/04 09:15:26;;;;;;;1.10;1.00;;;;;;;;;;1862672;75;26276;-42
2022/07/04 09:17:54;;;;;;;1.50;0.90;;;;;;;;;;1866186;75;26293;-42
2022/07/04 09:20:23;;;;;;;0.90;0.90;;;;;;;;;;1895712;75;26285;-44
2022/07/04 09:22:51;;;;;;;0.93;0.90;;;;;;;;;;1882038;75;26243;-43
2022/07/04 09:25:20;;;;;;;1.55;0.98;;;;;;;;;;1871814;75;26297;-46
2022/07/04 09:27:48;;;;;;;2.02;1.00;;;;;;;;;;1877182;75;26265;-43
2022/07/04 09:30:19;;;;;;;2.60;1.07;;;;;;;;;;1862369;75;26264;-50
2022/07/04 09:32:58;;;;;;;2.25;0.95;;;;;;;;;;1862129;75;26710;-40
2022/07/04 09:35:23;;;;;;;0.95;0.95;;;;;;;;;;1871482;75;26329;-42
2022/07/04 09:37:52;;;;;;;0.93;0.93;;;;;;;;;;1870051;75;26290;-43
2022/07/04 09:40:26;;;;;;;0.93;0.93;;;;;;;;;;1865232;75;26250;-46
2022/07/04 09:42:55;;;;;;;1.00;1.00;;;;;;;;;;1887848;75;26745;-40
2022/07/04 09:45:24;;;;;;;1.07;1.00;;;;;;;;;;1882451;75;26285;-42
2022/07/04 09:47:52;;;;;;;0.85;0.85;;;;;;;;;;1864992;75;26360;-45
2022/07/04 09:50:20;;;;;;;1.62;0.85;;;;;;;;;;1874820;75;26266;-42
2022/07/04 09:52:49;;;;;;;1.47;1.07;;;;;;;;;;1876369;75;26450;-40
2022/07/04 09:55:30;;;;;;;1.70;0.93;;;;;;;;;;1877474;75;26855;-42
2022/07/04 09:57:59;;;;;;;1.70;0.98;;;;;;;;;;1869046;75;26378;-41
2022/07/04 10:00:27;;;;;;;1.05;1.00;;;;;;;;;;1865063;75;26309;-43
2022/07/04 10:02:55;;;;;;;1.47;1.35;;;;;;;;;;1855596;75;26249;-42
2022/07/04 10:05:24;;;;;;;1.00;1.00;;;;;;;;;;1879026;75;26294;-49
2022/07/04 10:07:52;;;;;;;1.10;1.10;;;;;;;;;;1885005;75;26287;-45
2022/07/04 10:10:35;;;;;;;1.35;1.25;;;;;;;;;;1890248;75;25978;-45
2022/07/04 10:13:04;;;;;;;1.12;0.90;;;;;;;;;;1876431;75;26343;-40
2022/07/04 10:15:32;;;;;;;1.37;0.90;;;;;;;;;;1859979;75;26374;-41
2022/07/04 10:17:59;;;;;;;1.80;1.10;;;;;;;;;;1880703;75;26717;-43
2022/07/04 10:20:27;;;;;;;4.62;1.40;;;;;;;;;;1871559;75;26327;-40
2022/07/04 10:22:55;;;;;;;1.30;1.17;;;;;;;;;;1864113;75;26269;-44
2022/07/04 10:25:23;;;;;;;1.20;1.10;;;;;;;;;;1866799;75;26325;-47
2022/07/04 10:27:51;;;;;;;1.30;1.20;;;;;;;;;;1880403;75;26573;-42
2022/07/04 10:30:20;;;;;;;3.05;1.20;;;;;;;;;;1876508;75;26734;-48
2022/07/04 10:32:47;;;;;;;1.10;1.10;;;;;;;;;;1858828;75;26651;-42
2022/07/04 10:35:16;;;;;;;1.22;1.12;;;;;;;;;;1884971;75;26273;-47
2022/07/04 10:38:03;;;;;;;1.15;1.05;;;;;;;;;;1889835;75;26232;-44
2022/07/04 10:40:42;;;;;;;2.58;1.30;;;;;;;;;;1885582;75;26347;-44
2022/07/04 10:43:31;;;;;;;2.27;1.30;;;;;;;;;;1896002;75;26233;-41
2022/07/04 10:46:00;;;;;;;1.70;1.20;;;;;;;;;;1861806;75;26300;-41
2022/07/04 10:48:27;;;;;;;1.62;1.10;;;;;;;;;;1854574;75;26304;-42
2022/07/04 10:51:05;;;;;;;1.40;1.20;;;;;;;;;;1874517;75;26254;-43
2022/07/04 10:53:33;;;;;;;1.67;1.22;;;;;;;;;;1873858;75;26714;-40
2022/07/04 10:56:14;;;;;;;2.20;1.12;;;;;;;;;;1868007;75;26363;-45
2022/07/04 10:58:42;;;;;;;1.37;1.20;;;;;;;;;;1863241;75;26705;-44
2022/07/04 11:01:13;;;;;;;5.75;1.20;;;;;;;;;;1857833;75;26242;-43
2022/07/04 11:03:51;;;;;;;1.72;1.12;;;;;;;;;;1862407;75;26807;-48
2022/07/04 11:06:32;;;;;;;1.27;1.17;;;;;;;;;;1875398;75;26777;-47
2022/07/04 11:09:17;;;;;;;1.85;1.20;;;;;;;;;;1874011;75;26301;-45
2022/07/04 11:11:58;;;;;;;1.95;1.10;;;;;;;;;;1857651;75;26582;-41
2022/07/04 11:14:32;;;;;;;2.15;1.20;;;;;;;;;;1872842;75;26668;-44
2022/07/04 11:16:59;;;;;;;1.15;1.10;;;;;;;;;;1870388;75;26258;-43
2022/07/04 11:19:31;;;;;;;1.30;1.20;;;;;;;;;;1872464;75;26738;-44
2022/07/04 11:21:56;;;;;;;1.80;1.10;;;;;;;;;;1868135;75;27526;-45
2022/07/04 11:24:24;;;;;;;2.25;1.00;;;;;;;;;;1862114;75;26297;-49
2022/07/04 11:26:51;;;;;;;1.10;1.10;;;;;;;;;;1865915;75;26693;-44
2022/07/04 11:29:19;;;;;;;1.30;1.30;;;;;;;;;;1868509;75;26359;-44
2022/07/04 11:31:47;;;;;;;1.22;1.12;;;;;;;;;;1865784;75;26718;-45
2022/07/04 11:34:15;;;;;;;1.30;1.20;;;;;;;;;;1865120;75;26281;-42
2022/07/04 11:36:44;;;;;;;1.55;1.00;;;;;;;;;;1868148;75;26842;-42
2022/07/04 11:39:13;;;;;;;2.42;1.32;;;;;;;;;;1865842;75;26601;-41
2022/07/04 11:47:24;;;;;;;1.07;1.07;;;;;;;;;;1863341;75;26384;-41
2022/07/04 11:49:55;;;;;;;1.07;1.00;;;;;;;;;;1878695;75;26291;-42
2022/07/04 11:52:23;;;;;;;1.67;1.12;;;;;;;;;;1865604;75;26354;-52
2022/07/04 11:54:51;;;;;;;2.52;1.25;;;;;;;;;;1873264;75;26201;-48
2022/07/04 11:57:20;;;;;;;0.90;0.90;;;;;;;;;;1875105;75;26208;-42
2022/07/04 12:00:02;;;;;;;1.20;1.10;;;;;;;;;;1872529;75;26265;-44
2022/07/04 12:02:30;;;;;;;1.57;1.30;;;;;;;;;;1833423;76;26333;-40
2022/07/04 12:04:57;;;;;;;1.47;1.10;;;;;;;;;;1840872;76;26333;-46
2022/07/04 12:07:25;;;;;;;2.42;1.17;;;;;;;;;;1839736;76;27408;-52
2022/07/04 12:09:53;;;;;;;1.55;1.37;;;;;;;;;;1863185;76;26309;-52
2022/07/04 12:12:21;;;;;;;1.20;1.20;;;;;;;;;;1855210;76;26238;-43
2022/07/04 12:15:05;;;;;;;1.40;1.30;;;;;;;;;;1843193;76;26555;-47
2022/07/04 12:17:37;;;;;;;1.52;1.30;;;;;;;;;;1844098;76;26707;-40
2022/07/04 12:20:06;;;;;;;1.47;1.37;;;;;;;;;;1841056;76;26242;-39
2022/07/04 12:22:37;;;;;;;1.40;1.30;;;;;;;;;;1855926;76;26198;-40
2022/07/04 12:25:06;;;;;;;1.32;1.30;;;;;;;;;;1843779;76;26664;-40
2022/07/04 12:27:34;;;;;;;2.02;1.50;;;;;;;;;;1826686;76;26266;-42
2022/07/04 12:30:03;;;;;;;1.30;1.30;;;;;;;;;;1834439;76;26505;-44
2022/07/04 12:32:50;;;;;;;1.40;1.30;;;;;;;;;;1837456;76;26691;-46
2022/07/04 12:35:31;;;;;;;1.62;1.35;;;;;;;;;;1828714;76;26830;-48
2022/07/04 12:38:02;;;;;;;2.72;1.47;;;;;;;;;;1831783;76;26286;-42
2022/07/04 12:40:29;;;;;;;1.50;1.20;;;;;;;;;;1834645;76;26921;-41
2022/07/04 12:42:57;;;;;;;2.00;1.20;;;;;;;;;;1831940;76;26249;-43
2022/07/04 12:45:24;;;;;;;1.10;1.10;;;;;;;;;;1836941;76;26724;-49
2022/07/04 12:47:53;;;;;;;1.52;1.42;;;;;;;;;;1839387;76;26920;-44
2022/07/04 12:50:27;;;;;;;1.62;1.20;;;;;;;;;;1831963;76;27476;-45
2022/07/04 12:52:54;;;;;;;2.02;1.30;;;;;;;;;;1835191;76;26289;-44
2022/07/04 12:55:21;;;;;;;1.42;1.30;;;;;;;;;;1846480;76;26286;-48
2022/07/04 12:57:49;;;;;;;1.45;1.35;;;;;;;;;;1836403;76;26242;-43
2022/07/04 13:00:16;;;;;;;1.40;1.30;;;;;;;;;;1837986;76;26269;-50
2022/07/04 13:02:43;;;;;;;1.20;1.10;;;;;;;;;;1850290;75;26921;-42
2022/07/04 13:05:11;;;;;;;3.25;1.22;;;;;;;;;;1866940;75;27431;-50
2022/07/04 13:07:38;;;;;;;2.25;1.20;;;;;;;;;;1868886;75;26344;-43
2022/07/04 13:10:06;;;;;;;1.30;1.20;;;;;;;;;;1873562;75;26352;-42
2022/07/04 13:12:33;;;;;;;1.30;1.20;;;;;;;;;;1859821;75;26265;-39
2022/07/04 13:15:01;;;;;;;1.00;1.00;;;;;;;;;;1864751;75;26258;-47
2022/07/04 13:17:28;;;;;;;1.72;1.17;;;;;;;;;;1860756;75;26852;-43
2022/07/04 13:19:56;;;;;;;2.45;1.15;;;;;;;;;;1869878;75;26648;-41
2022/07/04 13:22:24;;;;;;;1.35;1.25;;;;;;;;;;1869395;75;26265;-47
2022/07/04 13:24:51;;;;;;;2.85;1.20;;;;;;;;;;1873371;75;26902;-45
2022/07/04 13:27:19;;;;;;;1.77;1.10;;;;;;;;;;1867033;75;26297;-43
2022/07/04 13:29:46;;;;;;;1.17;1.10;;;;;;;;;;1869786;75;26253;-41
2022/07/04 13:32:13;;;;;;;1.10;1.10;;;;;;;;;;1869383;75;26242;-41
2022/07/04 13:34:41;;;;;;;1.47;1.37;;;;;;;;;;1866580;75;26249;-45
2022/07/04 13:37:08;;;;;;;1.65;1.30;;;;;;;;;;1856971;75;26305;-42
2022/07/04 13:39:35;;;;;;;1.40;1.30;;;;;;;;;;1868564;75;26721;-43
2022/07/04 13:42:03;;;;;;;2.50;1.42;;;;;;;;;;1871593;75;26268;-41
2022/07/04 13:44:30;;;;;;;1.40;1.30;;;;;;;;;;1877971;75;26724;-43
2022/07/04 13:46:58;;;;;;;1.60;1.42;;;;;;;;;;1878074;75;26355;-41
2022/07/04 13:49:25;;;;;;;1.42;1.35;;;;;;;;;;1874761;75;26321;-48
2022/07/04 13:51:53;;;;;;;2.83;1.52;;;;;;;;;;1867730;75;26272;-42
2022/07/04 13:54:20;;;;;;;1.50;1.40;;;;;;;;;;1884239;75;26190;-48
2022/07/04 13:56:48;;;;;;;2.00;1.40;;;;;;;;;;1873646;75;26249;-42
2022/07/04 13:59:15;;;;;;;2.10;1.47;;;;;;;;;;1867726;75;26336;-45
2022/07/04 14:01:42;;;;;;;1.30;1.30;;;;;;;;;;1870357;75;26758;-41
2022/07/04 14:04:10;;;;;;;1.50;1.40;;;;;;;;;;1861649;75;26757;-47
2022/07/04 14:06:37;;;;;;;1.62;1.52;;;;;;;;;;1863144;75;26874;-46
2022/07/04 14:09:04;;;;;;;1.92;1.65;;;;;;;;;;1872670;75;26257;-48
2022/07/04 14:11:31;;;;;;;1.70;1.60;;;;;;;;;;1864919;75;26198;-55
2022/07/04 14:13:59;;;;;;;1.82;1.72;;;;;;;;;;1873915;75;26277;-45
2022/07/04 14:16:26;;;;;;;1.70;1.60;;;;;;;;;;1867283;75;26214;-43
2022/07/04 14:18:54;;;;;;;2.22;1.70;;;;;;;;;;1863571;75;26582;-48
2022/07/04 14:21:21;;;;;;;2.98;1.70;;;;;;;;;;1859672;75;26274;-42
2022/07/04 14:23:48;;;;;;;1.67;1.65;;;;;;;;;;1870741;75;26246;-40
2022/07/04 14:26:18;;;;;;;1.70;1.60;;;;;;;;;;1867660;75;26288;-46
2022/07/04 14:28:45;;;;;;;1.70;1.65;;;;;;;;;;1871443;75;26270;-44
2022/07/04 14:31:13;;;;;;;1.85;1.75;;;;;;;;;;1871286;75;26277;-41
2022/07/04 14:33:40;;;;;;;1.70;1.70;;;;;;;;;;1871004;75;26265;-40
2022/07/04 14:36:08;;;;;;;1.87;1.80;;;;;;;;;;1866516;75;26390;-41
2022/07/04 14:38:35;;;;;;;1.85;1.75;;;;;;;;;;1869489;75;26316;-40
2022/07/04 14:41:11;;;;;;;1.72;1.62;;;;;;;;;;1870098;75;26265;-41
2022/07/04 14:43:42;;;;;;;1.90;1.80;;;;;;;;;;1861454;75;26242;-44
2022/07/04 14:46:10;;;;;;;1.70;1.70;;;;;;;;;;1857281;75;26335;-42
2022/07/04 14:48:38;;;;;;;1.80;1.70;;;;;;;;;;1875447;75;25909;-48
2022/07/04 14:51:06;;;;;;;2.12;1.77;;;;;;;;;;1863862;75;26254;-40
2022/07/04 14:53:33;;;;;;;1.75;1.65;;;;;;;;;;1875277;75;26225;-43
2022/07/04 14:56:00;;;;;;;1.82;1.72;;;;;;;;;;1886057;75;26713;-40
2022/07/04 14:58:28;;;;;;;1.70;1.60;;;;;;;;;;1871367;75;26327;-44
2022/07/04 15:00:55;;;;;;;1.50;1.42;;;;;;;;;;1854829;75;26583;-46
2022/07/04 15:03:23;;;;;;;1.20;1.20;;;;;;;;;;1868013;75;26299;-42
2022/07/04 15:05:50;;;;;;;1.92;1.30;;;;;;;;;;1868031;75;26277;-40
2022/07/04 15:08:18;;;;;;;1.20;1.20;;;;;;;;;;1862495;75;26251;-45
2022/07/04 15:10:45;;;;;;;1.30;1.30;;;;;;;;;;1865533;75;25858;-45
2022/07/04 15:13:13;;;;;;;1.77;1.12;;;;;;;;;;1872227;75;26265;-41